CPX610 Details

Departure: Washington Dulles International Airport (KIAD)
Arrival: Richmond International Airport (KRIC)
Route: JDUBB2 JDUBB BNTLY RIC


Current Weather Information
KIAD 231152Z 00000KT 6SM BR FEW050 07/06 A3001 RMK AO2 SLP162 70038 T00670056 10100 20056 51024
KRIC 231154Z 33003KT 10SM FEW009 FEW300 12/10 A3003 RMK AO2 SLP173 70007 T01170100 10139 20111 51027